createdAt,value
2018-09-06T00:01:20.304Z,8.60
2018-09-06T00:03:49.234Z,8.65
2018-09-06T00:06:18.157Z,9.38
2018-09-06T00:08:47.190Z,9.18
2018-09-06T00:11:16.151Z,8.48
2018-09-06T00:13:45.094Z,8.60
2018-09-06T00:16:14.041Z,8.48
2018-09-06T00:18:43.093Z,8.73
2018-09-06T00:21:12.022Z,9.45
2018-09-06T00:23:40.996Z,8.90
2018-09-06T00:26:10.074Z,8.68
2018-09-06T00:28:39.026Z,9.43
2018-09-06T00:31:07.955Z,9.38
2018-09-06T00:33:36.865Z,9.30
2018-09-06T00:36:06.246Z,8.58
2018-09-06T00:38:35.182Z,9.08
2018-09-06T00:41:04.119Z,9.50
2018-09-06T00:43:33.203Z,9.23
2018-09-06T00:46:02.286Z,8.98
2018-09-06T00:48:31.272Z,9.00
2018-09-06T00:51:00.192Z,8.63
2018-09-06T00:53:29.164Z,9.00
2018-09-06T00:55:58.190Z,7.90
2018-09-06T00:58:27.495Z,8.15
2018-09-06T01:00:56.448Z,8.70
2018-09-06T01:03:25.364Z,8.85
2018-09-06T01:05:54.357Z,8.18
2018-09-06T01:08:23.471Z,8.70
2018-09-06T01:10:52.521Z,8.98
2018-09-06T01:13:21.827Z,8.70
2018-09-06T01:15:50.781Z,8.90
2018-09-06T01:18:19.915Z,9.08
2018-09-06T01:20:49.095Z,9.75
2018-09-06T01:23:18.219Z,8.83
2018-09-06T01:25:48.744Z,9.70
2018-09-06T01:28:19.497Z,9.30
2018-09-06T01:30:49.502Z,9.05
2018-09-06T01:33:19.008Z,9.23
2018-09-06T01:35:53.439Z,9.53
2018-09-06T01:38:22.426Z,9.15
2018-09-06T01:40:51.582Z,9.85
2018-09-06T01:43:20.685Z,9.83
2018-09-06T01:45:49.605Z,8.45
2018-09-06T01:48:18.582Z,9.68
2018-09-06T01:50:47.510Z,9.10
2018-09-06T01:53:16.440Z,9.60
2018-09-06T01:55:45.658Z,8.23
2018-09-06T01:58:14.782Z,8.68
2018-09-06T02:00:43.744Z,9.55
2018-09-06T02:03:12.700Z,9.85
2018-09-06T02:05:41.688Z,9.53
2018-09-06T02:08:10.752Z,9.88
2018-09-06T02:10:39.721Z,9.83
2018-09-06T02:13:08.650Z,9.55
2018-09-06T02:15:37.921Z,9.60
2018-09-06T02:18:06.867Z,9.75
2018-09-06T02:20:35.824Z,9.13
2018-09-06T02:23:05.133Z,9.43
2018-09-06T02:25:34.089Z,9.08
2018-09-06T02:28:03.125Z,9.43
2018-09-06T02:30:32.063Z,8.98
2018-09-06T02:33:00.998Z,9.60
2018-09-06T02:35:29.947Z,10.25
2018-09-06T02:37:58.903Z,9.50
2018-09-06T02:40:33.249Z,9.63
2018-09-06T02:43:02.566Z,10.28
2018-09-06T02:45:31.499Z,10.05
2018-09-06T02:48:00.487Z,9.83
2018-09-06T02:50:34.749Z,10.60
2018-09-06T02:53:03.728Z,10.95
2018-09-06T02:55:32.860Z,11.50
2018-09-06T02:58:02.254Z,11.03
2018-09-06T03:00:35.595Z,11.15
2018-09-06T03:03:05.261Z,10.48
2018-09-06T03:05:34.705Z,11.00
2018-09-06T03:08:04.491Z,10.55
2018-09-06T03:10:39.590Z,11.20
2018-09-06T03:13:09.107Z,10.63
2018-09-06T03:15:39.325Z,11.18
2018-09-06T03:18:08.811Z,11.08
2018-09-06T03:20:38.601Z,10.60
2018-09-06T03:23:07.968Z,10.35
2018-09-06T03:25:37.269Z,11.18
2018-09-06T03:28:06.637Z,12.28
2018-09-06T03:30:35.590Z,13.18
2018-09-06T03:33:04.897Z,14.65
2018-09-06T03:35:33.875Z,12.63
2018-09-06T03:38:02.988Z,12.00
2018-09-06T03:40:32.010Z,12.23
2018-09-06T03:43:01.060Z,11.93
2018-09-06T03:45:30.548Z,12.18
2018-09-06T03:47:59.564Z,11.53
2018-09-06T03:50:29.636Z,12.13
2018-09-06T03:52:58.671Z,12.20
2018-09-06T03:55:27.880Z,11.75
2018-09-06T03:57:56.866Z,11.70
2018-09-06T04:00:25.809Z,11.60
2018-09-06T04:02:55.028Z,12.23
2018-09-06T04:05:23.977Z,11.78
2018-09-06T04:07:53.138Z,11.25
2018-09-06T04:10:28.835Z,12.50
2018-09-06T04:12:57.821Z,11.35
2018-09-06T04:15:26.779Z,12.60
2018-09-06T04:17:55.713Z,10.98
2018-09-06T04:20:24.749Z,12.05
2018-09-06T04:22:53.700Z,12.33
2018-09-06T04:25:22.654Z,12.45
2018-09-06T04:27:51.789Z,13.10
2018-09-06T04:30:20.961Z,11.80
2018-09-06T04:32:49.921Z,12.68
2018-09-06T04:35:18.876Z,12.35
2018-09-06T04:37:47.999Z,13.75
2018-09-06T04:40:16.952Z,12.45
2018-09-06T04:42:45.999Z,13.60
2018-09-06T04:45:14.976Z,15.20
2018-09-06T04:47:43.925Z,12.70
2018-09-06T04:50:12.861Z,13.83
2018-09-06T04:52:41.840Z,18.17
2018-09-06T04:55:11.355Z,19.65
2018-09-06T04:57:40.329Z,19.65
2018-09-06T05:00:10.204Z,19.42
2018-09-06T05:02:39.189Z,18.05
2018-09-06T05:05:08.258Z,18.67
2018-09-06T05:07:37.207Z,17.57
2018-09-06T05:10:06.706Z,17.57
2018-09-06T05:12:36.038Z,15.68
2018-09-06T05:15:05.401Z,16.67
2018-09-06T05:17:34.449Z,15.30
2018-09-06T05:20:04.028Z,16.05
2018-09-06T05:22:32.984Z,16.55
2018-09-06T05:25:02.118Z,16.02
2018-09-06T05:27:31.080Z,15.90
2018-09-06T05:30:00.164Z,17.35
2018-09-06T05:32:29.086Z,15.98
2018-09-06T05:34:58.145Z,16.35
2018-09-06T05:37:27.299Z,18.17
2018-09-06T05:39:56.290Z,17.67
2018-09-06T05:42:25.304Z,15.75
2018-09-06T05:44:54.367Z,15.63
2018-09-06T05:47:23.381Z,16.23
2018-09-06T05:49:52.354Z,15.72
2018-09-06T05:52:21.316Z,16.20
2018-09-06T05:54:50.266Z,15.50
2018-09-06T05:57:19.203Z,14.85
2018-09-06T05:59:48.198Z,14.53
2018-09-06T06:02:17.129Z,14.43
2018-09-06T06:04:46.057Z,14.68
2018-09-06T06:07:15.014Z,14.35
2018-09-06T06:09:44.020Z,14.07
2018-09-06T06:12:12.995Z,15.30
2018-09-06T06:14:41.951Z,13.43
2018-09-06T06:17:10.934Z,14.23
2018-09-06T06:19:39.915Z,13.98
2018-09-06T06:22:08.849Z,14.18
2018-09-06T06:24:37.885Z,14.15
2018-09-06T06:27:07.008Z,14.00
2018-09-06T06:29:36.049Z,14.30
2018-09-06T06:32:04.973Z,14.00
2018-09-06T06:34:34.165Z,13.98
2018-09-06T06:37:03.441Z,14.53
2018-09-06T06:39:32.534Z,14.68
2018-09-06T06:42:01.457Z,14.85
2018-09-06T06:44:30.387Z,14.85
2018-09-06T06:46:59.339Z,15.30
2018-09-06T06:49:28.333Z,15.30
2018-09-06T06:51:58.319Z,14.20
2018-09-06T06:54:27.283Z,14.68
2018-09-06T06:56:56.354Z,15.00
2018-09-06T06:59:25.649Z,13.80
2018-09-06T07:01:54.602Z,14.35
2018-09-06T07:04:23.800Z,13.58
2018-09-06T07:06:53.116Z,14.03
2018-09-06T07:09:22.230Z,13.58
2018-09-06T07:11:51.444Z,13.98
2018-09-06T07:14:20.453Z,13.43
2018-09-06T07:16:49.417Z,13.22
2018-09-06T07:19:18.930Z,12.47
2018-09-06T07:21:47.912Z,12.88
2018-09-06T07:24:16.869Z,15.78
2018-09-06T07:26:45.793Z,12.78
2018-09-06T07:29:14.929Z,12.50
2018-09-06T07:31:44.061Z,12.58
2018-09-06T07:34:13.151Z,12.25
2018-09-06T07:36:42.210Z,11.80
2018-09-06T07:39:11.552Z,11.95
2018-09-06T07:41:40.896Z,12.88
2018-09-06T07:44:09.837Z,11.78
2018-09-06T07:46:38.854Z,12.33
2018-09-06T07:49:08.128Z,11.63
2018-09-06T07:51:37.142Z,11.25
2018-09-06T07:54:06.699Z,11.60
2018-09-06T07:56:35.704Z,11.22
2018-09-06T07:59:05.301Z,10.75
2018-09-06T08:01:34.291Z,11.57
2018-09-06T08:04:03.764Z,11.00
2018-09-06T08:06:32.907Z,10.72
2018-09-06T08:09:01.867Z,10.85
2018-09-06T08:11:31.195Z,11.20
2018-09-06T08:14:00.131Z,10.70
2018-09-06T08:16:29.197Z,11.85
2018-09-06T08:18:58.222Z,10.85
2018-09-06T08:21:27.334Z,11.15
2018-09-06T08:23:56.315Z,10.23
2018-09-06T08:26:25.724Z,11.10
2018-09-06T08:28:54.802Z,10.35
2018-09-06T08:31:24.331Z,9.75
2018-09-06T08:33:53.585Z,10.20
2018-09-06T08:36:22.577Z,10.38
2018-09-06T08:38:51.599Z,10.80
2018-09-06T08:41:20.663Z,10.90
2018-09-06T08:43:50.012Z,11.53
2018-09-06T08:46:18.929Z,9.45
2018-09-06T08:48:48.302Z,9.95
2018-09-06T08:51:17.325Z,9.45
2018-09-06T08:53:46.275Z,9.68
2018-09-06T08:56:15.499Z,8.75
2018-09-06T08:58:44.557Z,9.98
2018-09-06T09:01:18.953Z,9.63
2018-09-06T09:03:47.895Z,9.78
2018-09-06T09:06:17.217Z,9.13
2018-09-06T09:08:46.234Z,9.70
2018-09-06T09:11:15.231Z,9.58
2018-09-06T09:13:44.377Z,9.13
2018-09-06T09:16:13.543Z,12.15
2018-09-06T09:18:42.655Z,9.68
2018-09-06T09:21:11.415Z,9.43
2018-09-06T09:23:40.406Z,8.63
2018-09-06T09:26:09.114Z,9.27
2018-09-06T09:28:37.812Z,8.67
2018-09-06T09:31:06.600Z,8.50
2018-09-06T09:33:35.658Z,9.47
2018-09-06T09:36:04.860Z,8.93
2018-09-06T09:38:33.930Z,8.20
2018-09-06T09:41:03.060Z,8.70
2018-09-06T09:43:31.775Z,8.37
2018-09-06T09:48:28.418Z,8.63
2018-09-06T09:50:57.140Z,8.70
2018-09-06T09:53:25.816Z,8.90
2018-09-06T09:55:54.464Z,8.27
2018-09-06T09:58:23.279Z,9.00
2018-09-06T10:00:51.897Z,7.80
2018-09-06T10:03:26.001Z,8.30
2018-09-06T10:05:59.702Z,8.53
2018-09-06T10:08:33.990Z,7.97
2018-09-06T10:11:03.007Z,7.83
2018-09-06T10:13:31.739Z,8.20
2018-09-06T10:16:00.737Z,7.73
2018-09-06T10:18:29.807Z,7.70
2018-09-06T10:20:58.507Z,7.77
2018-09-06T10:23:27.230Z,7.73
2018-09-06T10:25:56.373Z,7.63
2018-09-06T10:28:25.442Z,7.50
2018-09-06T10:30:54.291Z,7.53
2018-09-06T10:33:22.974Z,7.60
2018-09-06T10:35:51.603Z,7.40
2018-09-06T10:38:20.311Z,7.47
2018-09-06T10:40:49.420Z,7.80
2018-09-06T10:43:18.451Z,8.47
2018-09-06T10:45:47.149Z,7.00
2018-09-06T10:48:15.891Z,7.30
2018-09-06T10:50:44.796Z,7.50
2018-09-06T10:53:13.945Z,7.43
2018-09-06T10:55:42.811Z,8.23
2018-09-06T10:58:12.296Z,8.07
2018-09-06T11:00:41.270Z,7.63
2018-09-06T11:03:10.175Z,9.00
2018-09-06T11:05:39.299Z,7.43
2018-09-06T11:08:08.366Z,7.80
2018-09-06T11:10:37.070Z,7.87
2018-09-06T11:13:05.853Z,8.30
2018-09-06T11:15:34.715Z,8.00
2018-09-06T11:18:03.475Z,7.80
2018-09-06T11:20:32.325Z,7.93
2018-09-06T11:23:01.390Z,8.20
2018-09-06T11:25:30.118Z,8.23
2018-09-06T11:27:58.812Z,8.47
2018-09-06T11:30:27.661Z,8.37
2018-09-06T11:32:56.373Z,8.17
2018-09-06T11:35:25.208Z,8.53
2018-09-06T11:37:54.039Z,8.60
2018-09-06T11:40:23.153Z,7.50
2018-09-06T11:42:52.346Z,8.60
2018-09-06T11:45:21.203Z,12.77
2018-09-06T11:47:50.129Z,8.00
2018-09-06T11:50:19.382Z,7.43
2018-09-06T11:52:48.119Z,7.57
2018-09-06T11:55:16.788Z,8.10
2018-09-06T11:57:45.550Z,8.03
2018-09-06T12:00:14.339Z,7.67
2018-09-06T12:02:43.784Z,7.67
2018-09-06T12:05:12.632Z,8.37
2018-09-06T12:07:41.347Z,9.23
2018-09-06T12:10:10.041Z,9.63
2018-09-06T12:12:38.739Z,9.17
2018-09-06T12:15:07.423Z,8.90
2018-09-06T12:17:36.390Z,9.40
2018-09-06T12:20:05.472Z,9.60
2018-09-06T12:22:34.502Z,8.93
2018-09-06T12:25:03.224Z,9.47
2018-09-06T12:27:32.055Z,9.17
2018-09-06T12:30:00.925Z,9.97
2018-09-06T12:32:30.086Z,8.67
2018-09-06T12:34:58.930Z,7.83
2018-09-06T12:37:27.781Z,8.93
2018-09-06T12:39:57.023Z,8.50
2018-09-06T12:42:26.189Z,9.30
2018-09-06T12:44:55.005Z,9.07
2018-09-06T12:47:23.681Z,8.87
2018-09-06T12:49:53.118Z,8.67
2018-09-06T12:52:21.993Z,8.03
2018-09-06T12:54:50.663Z,8.83
2018-09-06T12:57:19.685Z,9.07
2018-09-06T12:59:48.381Z,9.30
2018-09-06T13:02:17.319Z,8.77
2018-09-06T13:04:46.425Z,9.17
2018-09-06T13:07:15.305Z,8.97
2018-09-06T13:09:43.913Z,8.70
2018-09-06T13:12:12.643Z,8.90
2018-09-06T13:14:41.311Z,8.93
2018-09-06T13:17:10.124Z,9.03
2018-09-06T13:19:38.842Z,8.50
2018-09-06T13:22:07.658Z,8.73
2018-09-06T13:24:36.437Z,8.63
2018-09-06T13:27:05.468Z,9.03
2018-09-06T13:29:34.356Z,8.67
2018-09-06T13:32:03.042Z,9.10
2018-09-06T13:34:31.722Z,9.13
2018-09-06T13:37:00.441Z,8.90
2018-09-06T13:39:29.180Z,8.27
2018-09-06T13:41:57.865Z,9.13
2018-09-06T13:44:26.580Z,8.50
2018-09-06T13:46:55.363Z,8.30
2018-09-06T13:49:24.064Z,8.67
2018-09-06T13:51:52.706Z,9.03
2018-09-06T13:54:21.397Z,9.47
2018-09-06T13:56:50.250Z,9.50
2018-09-06T13:59:18.918Z,8.70
2018-09-06T14:01:47.738Z,9.23
2018-09-06T14:04:16.454Z,9.13
2018-09-06T14:06:45.264Z,9.03
2018-09-06T14:09:14.293Z,9.07
2018-09-06T14:11:43.010Z,9.00
2018-09-06T14:14:11.797Z,8.93
2018-09-06T14:16:40.495Z,9.93
2018-09-06T14:19:09.362Z,9.70
2018-09-06T14:21:38.178Z,9.50
2018-09-06T14:24:07.529Z,9.13
2018-09-06T14:26:36.436Z,8.73
2018-09-06T14:29:05.810Z,9.80
2018-09-06T14:31:34.579Z,9.63
2018-09-06T14:34:03.651Z,9.30
2018-09-06T14:36:32.308Z,8.90
2018-09-06T14:39:01.231Z,8.73
2018-09-06T14:41:30.181Z,9.17
2018-09-06T14:43:58.882Z,9.23
2018-09-06T14:46:27.775Z,9.00
2018-09-06T14:48:56.460Z,8.50
2018-09-06T14:51:25.331Z,9.50
2018-09-06T14:53:54.167Z,9.10
2018-09-06T14:56:22.969Z,8.33
2018-09-06T14:58:51.663Z,8.53
2018-09-06T15:01:20.539Z,8.57
2018-09-06T15:03:49.213Z,9.07
2018-09-06T15:06:18.095Z,9.20
2018-09-06T15:08:46.799Z,9.30
2018-09-06T15:11:15.643Z,9.17
2018-09-06T15:13:44.427Z,8.33
2018-09-06T15:16:13.342Z,8.37
2018-09-06T15:18:42.021Z,8.30
2018-09-06T15:21:10.813Z,8.77
2018-09-06T15:23:39.603Z,8.40
2018-09-06T15:26:08.347Z,8.73
2018-09-06T15:28:37.089Z,9.97
2018-09-06T15:31:05.849Z,8.37
2018-09-06T15:33:34.760Z,8.70
2018-09-06T15:36:03.462Z,9.00
2018-09-06T15:38:32.169Z,8.37
2018-09-06T15:41:00.846Z,8.90
2018-09-06T15:43:29.513Z,9.13
2018-09-06T15:45:58.376Z,9.50
2018-09-06T15:48:27.067Z,9.23
2018-09-06T15:50:55.734Z,7.90
2018-09-06T15:53:26.273Z,7.97
2018-09-06T15:55:55.051Z,8.40
2018-09-06T15:58:23.892Z,8.30
2018-09-06T16:00:52.534Z,8.63
2018-09-06T16:03:21.378Z,9.17
2018-09-06T16:05:50.047Z,8.63
2018-09-06T16:08:18.746Z,8.63
2018-09-06T16:10:47.440Z,10.13
2018-09-06T16:13:16.306Z,9.43
2018-09-06T16:15:44.990Z,12.13
2018-09-06T16:18:13.844Z,9.77
2018-09-06T16:20:42.582Z,10.33
2018-09-06T16:23:11.295Z,8.70
2018-09-06T16:25:40.039Z,8.67
2018-09-06T16:28:08.793Z,9.30
2018-09-06T16:30:37.496Z,8.73
2018-09-06T16:33:06.214Z,9.10
2018-09-06T16:35:35.100Z,9.07
2018-09-06T16:38:04.055Z,8.73
2018-09-06T16:40:32.735Z,9.37
2018-09-06T16:43:01.899Z,9.37
2018-09-06T16:45:30.561Z,9.80
2018-09-06T16:47:59.337Z,9.03
2018-09-06T16:50:28.143Z,9.27
2018-09-06T16:52:56.852Z,9.13
2018-09-06T16:55:25.563Z,10.20
2018-09-06T16:57:54.271Z,9.83
2018-09-06T17:00:23.089Z,10.73
2018-09-06T17:02:53.159Z,12.17
2018-09-06T17:05:22.230Z,10.33
2018-09-06T17:07:50.966Z,10.73
2018-09-06T17:10:19.667Z,10.67
2018-09-06T17:12:48.417Z,10.40
2018-09-06T17:15:17.088Z,9.33
2018-09-06T17:17:45.881Z,10.40
2018-09-06T17:20:14.625Z,9.00
2018-09-06T17:22:43.529Z,10.07
2018-09-06T17:25:12.326Z,10.70
2018-09-06T17:27:41.389Z,11.38
2018-09-06T17:30:10.075Z,11.63
2018-09-06T17:32:39.147Z,10.10
2018-09-06T17:35:08.281Z,10.48
2018-09-06T17:37:37.322Z,10.20
2018-09-06T17:40:07.171Z,11.10
2018-09-06T17:42:36.052Z,10.30
2018-09-06T17:45:05.040Z,10.17
2018-09-06T17:47:33.891Z,9.77
2018-09-06T17:50:02.788Z,9.73
2018-09-06T17:52:31.722Z,10.78
2018-09-06T17:55:00.742Z,10.80
2018-09-06T17:57:29.534Z,9.67
2018-09-06T17:59:58.497Z,9.05
2018-09-06T18:02:27.170Z,9.23
2018-09-06T18:04:55.860Z,9.07
2018-09-06T18:07:25.278Z,9.70
2018-09-06T18:09:54.286Z,10.53
2018-09-06T18:12:23.688Z,11.20
2018-09-06T18:14:52.398Z,12.43
2018-09-06T18:17:21.374Z,12.25
2018-09-06T18:19:50.656Z,11.33
2018-09-06T18:22:19.668Z,11.18
2018-09-06T18:24:49.056Z,11.93
2018-09-06T18:27:18.516Z,11.55
2018-09-06T18:29:47.520Z,12.60
2018-09-06T18:32:16.479Z,13.10
2018-09-06T18:34:45.649Z,13.47
2018-09-06T18:37:14.885Z,14.17
2018-09-06T18:39:43.841Z,14.93
2018-09-06T18:42:12.813Z,15.28
2018-09-06T18:44:41.746Z,15.48
2018-09-06T18:47:10.718Z,15.55
2018-09-06T18:49:40.166Z,16.55
2018-09-06T18:52:09.628Z,17.23
2018-09-06T18:54:38.648Z,16.67
2018-09-06T18:57:08.327Z,17.98
2018-09-06T18:59:37.279Z,17.67
2018-09-06T19:02:06.608Z,18.85
2018-09-06T19:04:35.483Z,18.00
2018-09-06T19:07:04.539Z,18.70
2018-09-06T19:09:33.863Z,18.35
2018-09-06T19:12:02.852Z,18.90
2018-09-06T19:14:32.040Z,18.05
2018-09-06T19:17:01.024Z,18.80
2018-09-06T19:19:29.991Z,18.27
2018-09-06T19:21:59.098Z,19.02
2018-09-06T19:24:28.145Z,18.70
2018-09-06T19:26:57.215Z,18.55
2018-09-06T19:29:26.571Z,18.15
2018-09-06T19:31:55.781Z,17.70
2018-09-06T19:34:24.851Z,17.77
2018-09-06T19:36:54.087Z,17.62
2018-09-06T19:39:23.091Z,17.57
2018-09-06T19:41:52.435Z,17.12
2018-09-06T19:44:21.409Z,16.62
2018-09-06T19:46:50.447Z,16.57
2018-09-06T19:49:19.402Z,15.95
2018-09-06T19:51:48.816Z,16.07
2018-09-06T19:54:17.812Z,16.02
2018-09-06T19:56:47.072Z,15.38
2018-09-06T19:59:16.086Z,15.88
2018-09-06T20:01:45.038Z,15.03
2018-09-06T20:04:14.000Z,15.15
2018-09-06T20:06:42.993Z,15.58
2018-09-06T20:09:12.050Z,14.75
2018-09-06T20:11:40.997Z,14.47
2018-09-06T20:14:09.934Z,15.58
2018-09-06T20:16:38.894Z,14.63
2018-09-06T20:19:08.134Z,15.28
2018-09-06T20:21:37.060Z,14.35
2018-09-06T20:24:06.185Z,14.78
2018-09-06T20:26:35.124Z,14.07
2018-09-06T20:29:04.077Z,13.65
2018-09-06T20:31:33.192Z,14.00
2018-09-06T20:34:01.861Z,13.27
2018-09-06T20:36:30.884Z,13.98
2018-09-06T20:38:59.834Z,13.40
2018-09-06T20:41:28.788Z,13.75
2018-09-06T20:43:57.774Z,13.48
2018-09-06T20:46:26.715Z,12.58
2018-09-06T20:48:55.702Z,14.18
2018-09-06T20:51:24.719Z,11.90
2018-09-06T20:53:53.451Z,13.93
2018-09-06T20:56:22.405Z,13.62
2018-09-06T20:58:51.395Z,14.18
2018-09-06T21:01:20.384Z,14.55
2018-09-06T21:03:49.665Z,15.50
2018-09-06T21:06:18.678Z,15.28
2018-09-06T21:08:47.650Z,14.55
2018-09-06T21:11:16.620Z,13.93
2018-09-06T21:13:45.577Z,13.62
2018-09-06T21:16:14.676Z,14.50
2018-09-06T21:18:43.793Z,14.80
2018-09-06T21:21:12.431Z,13.90
2018-09-06T21:23:41.381Z,13.43
2018-09-06T21:26:10.516Z,14.33
2018-09-06T21:28:39.431Z,12.58
2018-09-06T21:31:08.959Z,12.78
2018-09-06T21:33:37.923Z,14.10
2018-09-06T21:36:06.949Z,12.60
2018-09-06T21:38:35.946Z,12.78
2018-09-06T21:41:05.032Z,13.38
2018-09-06T21:43:34.014Z,12.37
2018-09-06T21:46:11.669Z,14.55
2018-09-06T21:48:40.695Z,12.47
2018-09-06T21:51:09.689Z,11.93
2018-09-06T21:53:38.807Z,11.22
2018-09-06T21:56:07.763Z,10.28
2018-09-06T21:58:36.684Z,10.72
2018-09-06T22:01:06.129Z,10.55
2018-09-06T22:03:40.515Z,10.28
2018-09-06T22:06:09.479Z,10.50
2018-09-06T22:08:38.492Z,10.20
2018-09-06T22:11:07.449Z,10.53
2018-09-06T22:13:36.387Z,11.12
2018-09-06T22:16:06.605Z,11.15
2018-09-06T22:18:36.052Z,11.60
2018-09-06T22:21:05.361Z,11.88
2018-09-06T22:23:34.649Z,12.55
2018-09-06T22:26:03.611Z,12.60
2018-09-06T22:28:32.916Z,12.18
2018-09-06T22:31:01.888Z,12.82
2018-09-06T22:33:31.237Z,13.20
2018-09-06T22:36:00.190Z,12.73
2018-09-06T22:38:29.797Z,12.82
2018-09-06T22:40:58.766Z,12.80
2018-09-06T22:43:28.164Z,12.53
2018-09-06T22:45:57.266Z,12.58
2018-09-06T22:48:26.348Z,12.82
2018-09-06T22:50:55.392Z,11.68
2018-09-06T22:53:24.323Z,12.10
2018-09-06T22:55:53.290Z,12.43
2018-09-06T22:58:22.408Z,11.00
2018-09-06T23:00:51.380Z,11.73
2018-09-06T23:03:25.845Z,11.10
2018-09-06T23:05:54.826Z,10.38
2018-09-06T23:08:23.829Z,11.53
2018-09-06T23:10:53.097Z,10.70
2018-09-06T23:13:22.202Z,10.98
2018-09-06T23:15:51.206Z,10.53
2018-09-06T23:18:20.195Z,10.40
2018-09-06T23:20:49.170Z,10.38
2018-09-06T23:23:18.215Z,10.08
2018-09-06T23:25:47.170Z,10.58
2018-09-06T23:28:16.178Z,10.40
2018-09-06T23:30:45.129Z,10.32
2018-09-06T23:33:14.079Z,10.13
2018-09-06T23:35:46.015Z,9.83
2018-09-06T23:38:17.486Z,10.53
2018-09-06T23:40:51.935Z,11.57
2018-09-06T23:43:22.239Z,10.80
2018-09-06T23:45:53.257Z,11.22
2018-09-06T23:48:24.811Z,11.70
2018-09-06T23:50:54.635Z,12.18
2018-09-06T23:53:24.258Z,11.63
2018-09-06T23:55:53.334Z,12.40
2018-09-06T23:58:22.529Z,12.00
